createdAt,value
2018-09-12T00:00:57.120Z,0.00
2018-09-12T00:01:57.271Z,0.00
2018-09-12T00:02:57.423Z,0.00
2018-09-12T00:03:57.576Z,0.00
2018-09-12T00:04:57.730Z,0.00
2018-09-12T00:05:57.885Z,0.00
2018-09-12T00:06:58.036Z,0.00
2018-09-12T00:07:58.188Z,0.00
2018-09-12T00:08:58.340Z,0.00
2018-09-12T00:09:58.492Z,0.00
2018-09-12T00:10:58.644Z,0.00
2018-09-12T00:11:58.795Z,0.00
2018-09-12T00:12:58.947Z,0.00
2018-09-12T00:13:59.100Z,0.00
2018-09-12T00:14:59.254Z,0.00
2018-09-12T00:15:59.406Z,0.00
2018-09-12T00:16:59.561Z,0.00
2018-09-12T00:17:59.709Z,0.00
2018-09-12T00:18:59.863Z,0.00
2018-09-12T00:20:00.016Z,0.00
2018-09-12T00:21:00.186Z,0.00
2018-09-12T00:22:00.322Z,0.00
2018-09-12T00:23:00.480Z,0.00
2018-09-12T00:24:00.629Z,0.00
2018-09-12T00:25:00.781Z,0.00
2018-09-12T00:26:00.933Z,0.00
2018-09-12T00:27:01.087Z,0.00
2018-09-12T00:28:01.235Z,0.00
2018-09-12T00:29:01.399Z,0.00
2018-09-12T00:30:01.552Z,0.00
2018-09-12T00:31:01.719Z,0.00
2018-09-12T00:32:01.868Z,0.00
2018-09-12T00:33:02.023Z,0.00
2018-09-12T00:34:02.175Z,0.00
2018-09-12T00:35:02.326Z,0.00
2018-09-12T00:36:02.480Z,0.00
2018-09-12T00:37:02.687Z,0.00
2018-09-12T00:38:02.783Z,0.00
2018-09-12T00:39:02.935Z,0.00
2018-09-12T00:40:03.087Z,0.00
2018-09-12T00:41:03.239Z,0.00
2018-09-12T00:42:03.392Z,0.00
2018-09-12T00:43:03.543Z,0.00
2018-09-12T00:44:03.697Z,0.00
2018-09-12T00:45:03.849Z,0.00
2018-09-12T00:46:04.004Z,0.00
2018-09-12T00:47:04.158Z,0.00
2018-09-12T00:48:04.308Z,0.00
2018-09-12T00:49:04.461Z,0.00
2018-09-12T00:50:04.613Z,0.00
2018-09-12T00:51:04.767Z,0.00
2018-09-12T00:52:04.919Z,0.00
2018-09-12T00:53:05.072Z,0.00
2018-09-12T00:54:05.225Z,0.00
2018-09-12T00:55:05.377Z,0.00
2018-09-12T00:56:05.526Z,0.00
2018-09-12T00:57:05.682Z,0.00
2018-09-12T00:58:05.831Z,0.00
2018-09-12T00:59:05.984Z,0.00
2018-09-12T01:00:06.135Z,0.00
2018-09-12T01:01:06.285Z,0.00
2018-09-12T01:02:06.442Z,0.00
2018-09-12T01:03:06.590Z,0.00
2018-09-12T01:04:06.742Z,0.00
2018-09-12T01:05:06.896Z,0.00
2018-09-12T01:06:07.049Z,0.00
2018-09-12T01:07:07.197Z,0.00
2018-09-12T01:08:07.349Z,0.00
2018-09-12T01:09:07.498Z,0.00
2018-09-12T01:10:07.650Z,0.00
2018-09-12T01:11:07.800Z,0.00
2018-09-12T01:12:07.951Z,0.00
2018-09-12T01:13:08.105Z,0.00
2018-09-12T01:14:08.259Z,0.00
2018-09-12T01:15:08.409Z,0.00
2018-09-12T01:16:08.563Z,0.00
2018-09-12T01:17:08.718Z,0.00
2018-09-12T01:18:08.871Z,0.00
2018-09-12T01:19:09.024Z,0.00
2018-09-12T01:20:09.175Z,0.00
2018-09-12T01:21:09.327Z,0.00
2018-09-12T01:22:09.480Z,0.00
2018-09-12T01:23:09.631Z,0.00
2018-09-12T01:24:09.782Z,0.00
2018-09-12T01:25:09.933Z,0.00
2018-09-12T01:26:10.086Z,0.00
2018-09-12T01:27:10.236Z,0.00
2018-09-12T01:28:10.391Z,0.00
2018-09-12T01:29:10.548Z,0.00
2018-09-12T01:30:10.699Z,0.00
2018-09-12T01:31:10.851Z,0.00
2018-09-12T01:32:10.999Z,0.00
2018-09-12T01:33:11.151Z,0.00
2018-09-12T01:34:11.304Z,0.00
2018-09-12T01:35:11.460Z,0.00
2018-09-12T01:36:11.610Z,0.00
2018-09-12T01:37:11.762Z,0.00
2018-09-12T01:38:11.913Z,0.00
2018-09-12T01:39:12.065Z,0.00
2018-09-12T01:40:12.218Z,0.00
2018-09-12T01:41:12.367Z,0.00
2018-09-12T01:42:12.521Z,0.00
2018-09-12T01:43:12.673Z,0.00
2018-09-12T01:44:12.824Z,0.00
2018-09-12T01:45:12.977Z,0.00
2018-09-12T01:46:13.126Z,0.00
2018-09-12T01:47:13.279Z,0.00
2018-09-12T01:48:13.431Z,0.00
2018-09-12T01:49:13.581Z,0.00
2018-09-12T01:50:13.735Z,0.00
2018-09-12T01:51:13.885Z,0.00
2018-09-12T01:52:14.037Z,0.00
2018-09-12T01:53:14.188Z,0.00
2018-09-12T01:54:14.337Z,0.00
2018-09-12T01:55:14.489Z,0.00
2018-09-12T01:56:14.641Z,0.00
2018-09-12T01:57:14.793Z,0.00
2018-09-12T01:58:14.946Z,0.00
2018-09-12T01:59:15.098Z,0.00
2018-09-12T02:00:15.249Z,0.00
2018-09-12T02:01:15.401Z,0.00
2018-09-12T02:02:15.553Z,0.00
2018-09-12T02:03:15.708Z,0.00
2018-09-12T02:04:15.861Z,0.00
2018-09-12T02:05:16.011Z,0.00
2018-09-12T02:06:16.159Z,0.00
2018-09-12T02:07:16.313Z,0.00
2018-09-12T02:08:16.463Z,0.00
2018-09-12T02:09:16.613Z,0.00
2018-09-12T02:10:16.763Z,0.00
2018-09-12T02:11:16.915Z,0.00
2018-09-12T02:12:17.064Z,0.00
2018-09-12T02:13:17.214Z,0.00
2018-09-12T02:14:17.369Z,0.00
2018-09-12T02:15:17.517Z,0.00
2018-09-12T02:16:17.671Z,0.00
2018-09-12T02:17:17.821Z,0.00
2018-09-12T02:18:17.974Z,0.00
2018-09-12T02:19:18.126Z,0.00
2018-09-12T02:20:18.279Z,0.00
2018-09-12T02:21:18.430Z,0.00
2018-09-12T02:22:18.578Z,0.00
2018-09-12T02:23:18.730Z,0.00
2018-09-12T02:24:18.880Z,0.00
2018-09-12T02:25:19.029Z,0.00
2018-09-12T02:26:19.182Z,0.00
2018-09-12T02:27:19.334Z,0.00
2018-09-12T02:28:19.488Z,0.00
2018-09-12T02:29:19.639Z,0.00
2018-09-12T02:30:19.793Z,0.00
2018-09-12T02:31:19.945Z,0.00
2018-09-12T02:32:20.098Z,0.00
2018-09-12T02:33:20.249Z,0.00
2018-09-12T02:34:20.401Z,0.00
2018-09-12T02:35:20.552Z,0.00
2018-09-12T02:36:20.705Z,0.00
2018-09-12T02:37:21.507Z,0.00
2018-09-12T02:38:21.019Z,0.00
2018-09-12T02:39:21.171Z,0.00
2018-09-12T02:40:21.323Z,0.00
2018-09-12T02:41:21.477Z,0.00
2018-09-12T02:42:21.625Z,0.00
2018-09-12T02:43:21.815Z,0.00
2018-09-12T02:44:21.968Z,0.00
2018-09-12T02:45:22.117Z,0.00
2018-09-12T02:46:22.269Z,0.00
2018-09-12T02:47:22.423Z,0.00
2018-09-12T02:48:22.575Z,0.00
2018-09-12T02:49:22.726Z,0.00
2018-09-12T02:50:22.877Z,0.00
2018-09-12T02:51:23.027Z,0.00
2018-09-12T02:52:23.179Z,0.00
2018-09-12T02:53:23.333Z,0.00
2018-09-12T02:54:23.486Z,0.00
2018-09-12T02:55:23.635Z,0.00
2018-09-12T02:56:23.784Z,0.00
2018-09-12T02:57:23.936Z,0.00
2018-09-12T02:58:24.090Z,0.00
2018-09-12T02:59:24.239Z,0.00
2018-09-12T03:00:24.432Z,0.00
2018-09-12T03:01:24.539Z,0.00
2018-09-12T03:02:24.690Z,0.00
2018-09-12T03:03:24.898Z,0.00
2018-09-12T03:04:24.990Z,0.00
2018-09-12T03:05:25.139Z,0.00
2018-09-12T03:06:25.290Z,0.00
2018-09-12T03:07:25.443Z,0.00
2018-09-12T03:08:25.596Z,0.00
2018-09-12T03:09:25.745Z,0.00
2018-09-12T03:10:25.896Z,0.00
2018-09-12T03:11:26.045Z,0.00
2018-09-12T03:12:26.194Z,0.00
2018-09-12T03:13:26.343Z,0.00
2018-09-12T03:14:26.496Z,0.00
2018-09-12T03:15:26.647Z,0.00
2018-09-12T03:16:26.800Z,0.00
2018-09-12T03:17:26.951Z,0.00
2018-09-12T03:18:27.102Z,0.00
2018-09-12T03:19:27.253Z,0.00
2018-09-12T03:20:27.442Z,0.00
2018-09-12T03:21:27.567Z,0.00
2018-09-12T03:22:27.712Z,0.00
2018-09-12T03:23:27.863Z,0.00
2018-09-12T03:24:28.016Z,0.00
2018-09-12T03:25:28.170Z,0.00
2018-09-12T03:26:28.321Z,0.00
2018-09-12T03:27:28.471Z,0.00
2018-09-12T03:28:28.621Z,0.00
2018-09-12T03:29:28.775Z,0.00
2018-09-12T03:30:28.928Z,0.00
2018-09-12T03:31:29.079Z,0.00
2018-09-12T03:32:29.228Z,0.00
2018-09-12T03:33:29.381Z,0.00
2018-09-12T03:34:29.532Z,0.00
2018-09-12T03:35:29.684Z,0.00
2018-09-12T03:36:29.844Z,0.00
2018-09-12T03:37:29.988Z,0.00
2018-09-12T03:38:30.145Z,0.00
2018-09-12T03:39:30.294Z,0.00
2018-09-12T03:40:30.446Z,0.00
2018-09-12T03:41:30.599Z,0.00
2018-09-12T03:42:30.751Z,0.00
2018-09-12T03:43:30.902Z,0.00
2018-09-12T03:44:31.054Z,0.00
2018-09-12T03:45:31.207Z,0.00
2018-09-12T03:46:31.358Z,0.00
2018-09-12T03:47:31.512Z,0.00
2018-09-12T03:48:31.662Z,0.00
2018-09-12T03:49:31.813Z,0.00
2018-09-12T03:50:31.968Z,0.00
2018-09-12T03:51:32.118Z,0.00
2018-09-12T03:52:32.266Z,0.00
2018-09-12T03:53:32.417Z,0.00
2018-09-12T03:54:32.570Z,0.00
2018-09-12T03:55:32.721Z,0.00
2018-09-12T03:56:32.873Z,0.00
2018-09-12T03:57:33.023Z,0.00
2018-09-12T03:58:33.177Z,0.00
2018-09-12T03:59:33.329Z,0.00
2018-09-12T04:00:33.481Z,0.00
2018-09-12T04:01:33.632Z,0.00
2018-09-12T04:02:33.819Z,0.00
2018-09-12T04:03:33.935Z,0.00
2018-09-12T04:04:34.085Z,0.00
2018-09-12T04:05:34.238Z,0.00
2018-09-12T04:06:34.390Z,0.00
2018-09-12T04:07:34.544Z,0.00
2018-09-12T04:08:34.695Z,0.00
2018-09-12T04:09:34.844Z,0.00
2018-09-12T04:10:34.997Z,0.00
2018-09-12T04:11:35.149Z,0.00
2018-09-12T04:12:35.301Z,0.00
2018-09-12T04:13:35.452Z,0.00
2018-09-12T04:14:35.606Z,0.00
2018-09-12T04:15:35.755Z,0.00
2018-09-12T04:16:35.905Z,0.00
2018-09-12T04:17:36.059Z,0.00
2018-09-12T04:18:36.213Z,4.00
2018-09-12T04:19:36.365Z,4.00
2018-09-12T04:20:36.519Z,4.00
2018-09-12T04:21:36.670Z,0.00
2018-09-12T04:22:36.822Z,4.00
2018-09-12T04:23:36.975Z,8.00
2018-09-12T04:24:37.127Z,4.00
2018-09-12T04:25:37.280Z,4.00
2018-09-12T04:26:37.477Z,8.00
2018-09-12T04:27:37.583Z,8.00
2018-09-12T04:28:37.740Z,8.00
2018-09-12T04:29:37.889Z,12.00
2018-09-12T04:30:38.050Z,12.00
2018-09-12T04:31:38.200Z,16.00
2018-09-12T04:32:38.348Z,20.00
2018-09-12T04:33:38.500Z,24.00
2018-09-12T04:34:38.651Z,28.00
2018-09-12T04:35:38.800Z,32.00
2018-09-12T04:36:38.956Z,40.00
2018-09-12T04:37:39.107Z,48.00
2018-09-12T04:38:39.259Z,56.00
2018-09-12T04:39:39.412Z,68.00
2018-09-12T04:40:39.580Z,80.00
2018-09-12T04:41:39.714Z,92.00
2018-09-12T04:42:39.884Z,108.00
2018-09-12T04:43:40.019Z,124.00
2018-09-12T04:44:40.170Z,144.00
2018-09-12T04:45:40.323Z,160.00
2018-09-12T04:46:40.472Z,184.00
2018-09-12T04:47:40.618Z,204.00
2018-09-12T04:48:40.772Z,228.00
2018-09-12T04:49:40.928Z,256.00
2018-09-12T04:50:41.069Z,280.00
2018-09-12T04:51:41.218Z,308.00
2018-09-12T04:52:41.367Z,336.00
2018-09-12T04:53:41.520Z,364.00
2018-09-12T04:54:41.673Z,396.00
2018-09-12T04:55:41.822Z,428.00
2018-09-12T04:56:41.982Z,460.00
2018-09-12T04:57:42.128Z,496.00
2018-09-12T04:58:42.277Z,528.00
2018-09-12T04:59:42.503Z,568.00
2018-09-12T05:00:42.576Z,604.00
2018-09-12T05:01:42.727Z,644.00
2018-09-12T05:02:42.877Z,680.00
2018-09-12T05:03:43.029Z,720.00
2018-09-12T05:04:43.182Z,760.00
2018-09-12T05:05:43.331Z,800.00
2018-09-12T05:06:43.484Z,840.00
2018-09-12T05:07:43.635Z,884.00
2018-09-12T05:08:43.787Z,928.00
2018-09-12T05:09:43.940Z,976.00
2018-09-12T05:10:44.091Z,1016.00
2018-09-12T05:11:44.240Z,1060.00
2018-09-12T05:12:44.394Z,1100.00
2018-09-12T05:13:44.545Z,1144.00
2018-09-12T05:14:44.702Z,1184.00
2018-09-12T05:15:44.847Z,1228.00
2018-09-12T05:16:45.042Z,1272.00
2018-09-12T05:17:45.150Z,1312.00
2018-09-12T05:18:45.301Z,1352.00
2018-09-12T05:19:45.451Z,1392.00
2018-09-12T05:20:45.604Z,1436.00
2018-09-12T05:21:45.745Z,1476.00
2018-09-12T05:22:45.893Z,1516.00
2018-09-12T05:23:46.043Z,1556.00
2018-09-12T05:24:46.196Z,1592.00
2018-09-12T05:25:46.346Z,1632.00
2018-09-12T05:26:46.498Z,1668.00
2018-09-12T05:27:46.651Z,1704.00
2018-09-12T05:28:46.800Z,1744.00
2018-09-12T05:29:46.952Z,1780.00
2018-09-12T05:30:47.102Z,1808.00
2018-09-12T05:31:47.255Z,1844.00
2018-09-12T05:32:47.409Z,1880.00
2018-09-12T05:33:47.558Z,1916.00
2018-09-12T05:34:47.709Z,1948.00
2018-09-12T05:35:47.867Z,1984.00
2018-09-12T05:36:48.013Z,2016.00
2018-09-12T05:37:48.162Z,2048.00
2018-09-12T05:38:48.320Z,2080.00
2018-09-12T05:39:48.468Z,2112.00
2018-09-12T05:40:48.618Z,2140.00
2018-09-12T05:41:48.769Z,2172.00
2018-09-12T05:42:48.921Z,2200.00
2018-09-12T05:43:49.072Z,2228.00
2018-09-12T05:44:49.225Z,2252.00
2018-09-12T05:45:49.375Z,2276.00
2018-09-12T05:46:49.528Z,2312.00
2018-09-12T05:47:49.680Z,2340.00
2018-09-12T05:48:49.834Z,2368.00
2018-09-12T05:49:49.984Z,2392.00
2018-09-12T05:50:50.133Z,2416.00
2018-09-12T05:51:50.286Z,2444.00
2018-09-12T05:52:50.439Z,2472.00
2018-09-12T05:53:50.590Z,2496.00
2018-09-12T05:54:50.739Z,2520.00
2018-09-12T05:55:50.888Z,2548.00
2018-09-12T05:56:51.045Z,2560.00
2018-09-12T05:57:51.201Z,2592.00
2018-09-12T05:58:51.349Z,2616.00
2018-09-12T05:59:51.501Z,2640.00
2018-09-12T06:00:51.659Z,2660.00
2018-09-12T06:01:51.805Z,2684.00
2018-09-12T06:02:51.954Z,2708.00
2018-09-12T06:03:52.106Z,2728.00
2018-09-12T06:04:52.261Z,2756.00
2018-09-12T06:05:52.408Z,2776.00
2018-09-12T06:06:52.644Z,2796.00
2018-09-12T06:07:52.712Z,2820.00
2018-09-12T06:08:52.865Z,2840.00
2018-09-12T06:09:53.020Z,2856.00
2018-09-12T06:10:53.169Z,2880.00
2018-09-12T06:11:53.322Z,2900.00
2018-09-12T06:12:53.474Z,2920.00
2018-09-12T06:13:53.653Z,2936.00
2018-09-12T06:14:53.777Z,2956.00
2018-09-12T06:15:53.930Z,2972.00
2018-09-12T06:16:54.085Z,2988.00
2018-09-12T06:17:54.235Z,3004.00
2018-09-12T06:18:54.391Z,3020.00
2018-09-12T06:19:54.540Z,3032.00
2018-09-12T06:20:54.692Z,3044.00
2018-09-12T06:21:54.844Z,3060.00
2018-09-12T06:22:54.997Z,3072.00
2018-09-12T06:23:55.150Z,3088.00
2018-09-12T06:24:55.302Z,3104.00
2018-09-12T06:25:55.454Z,3120.00
2018-09-12T06:26:55.608Z,3128.00
2018-09-12T06:27:55.759Z,3140.00
2018-09-12T06:28:55.909Z,3156.00
2018-09-12T06:29:56.063Z,3164.00
2018-09-12T06:30:56.217Z,3176.00
2018-09-12T06:31:56.371Z,3188.00
2018-09-12T06:32:56.522Z,3200.00
2018-09-12T06:33:56.675Z,3212.00
2018-09-12T06:34:56.829Z,3228.00
2018-09-12T06:35:56.980Z,3244.00
2018-09-12T06:36:57.132Z,3252.00
2018-09-12T06:37:57.283Z,3264.00
2018-09-12T06:38:57.441Z,3276.00
2018-09-12T06:39:57.594Z,3284.00
2018-09-12T06:40:57.743Z,3300.00
2018-09-12T06:41:57.897Z,3308.00
2018-09-12T06:42:58.050Z,3320.00
2018-09-12T06:43:58.201Z,3328.00
2018-09-12T06:44:58.355Z,3340.00
2018-09-12T06:45:58.507Z,3352.00
2018-09-12T06:46:58.663Z,3360.00
2018-09-12T06:47:58.817Z,3372.00
2018-09-12T06:48:58.971Z,3380.00
2018-09-12T06:49:59.119Z,3392.00
2018-09-12T06:50:59.270Z,3400.00
2018-09-12T06:51:59.421Z,3408.00
2018-09-12T06:52:59.579Z,3416.00
2018-09-12T06:53:59.736Z,3428.00
2018-09-12T06:54:59.884Z,3440.00
2018-09-12T06:56:00.078Z,3448.00
2018-09-12T06:57:00.189Z,3456.00
2018-09-12T06:58:00.344Z,3464.00
2018-09-12T06:59:00.493Z,3472.00
2018-09-12T07:00:00.648Z,3484.00
2018-09-12T07:01:00.836Z,3492.00
2018-09-12T07:02:00.950Z,3500.00
2018-09-12T07:03:01.104Z,3508.00
2018-09-12T07:04:01.257Z,3516.00
2018-09-12T07:05:01.409Z,3524.00
2018-09-12T07:06:01.564Z,3532.00
2018-09-12T07:07:01.716Z,3536.00
2018-09-12T07:08:01.871Z,3548.00
2018-09-12T07:09:02.023Z,3556.00
2018-09-12T07:10:02.176Z,3560.00
2018-09-12T07:11:02.328Z,3572.00
2018-09-12T07:12:02.485Z,3580.00
2018-09-12T07:13:02.639Z,3592.00
2018-09-12T07:14:02.836Z,3596.00
2018-09-12T07:15:02.949Z,3608.00
2018-09-12T07:16:03.102Z,3612.00
2018-09-12T07:17:03.249Z,3624.00
2018-09-12T07:18:03.404Z,3628.00
2018-09-12T07:19:03.554Z,3640.00
2018-09-12T07:20:03.710Z,3644.00
2018-09-12T07:21:03.866Z,3656.00
2018-09-12T07:22:04.018Z,3664.00
2018-09-12T07:23:04.174Z,3672.00
2018-09-12T07:24:04.332Z,3684.00
2018-09-12T07:25:04.482Z,3692.00
2018-09-12T07:26:04.633Z,3704.00
2018-09-12T07:27:04.788Z,3712.00
2018-09-12T07:28:04.943Z,3720.00
2018-09-12T07:29:05.098Z,3736.00
2018-09-12T07:30:05.251Z,3736.00
2018-09-12T07:31:05.408Z,3744.00
2018-09-12T07:32:05.560Z,3752.00
2018-09-12T07:33:05.715Z,3756.00
2018-09-12T07:34:05.866Z,3768.00
2018-09-12T07:35:06.021Z,3776.00
2018-09-12T07:36:06.173Z,3788.00
2018-09-12T07:37:06.327Z,3796.00
2018-09-12T07:38:06.481Z,3804.00
2018-09-12T07:39:06.635Z,3812.00
2018-09-12T07:40:06.794Z,3820.00
2018-09-12T07:41:06.945Z,3828.00
2018-09-12T07:42:07.101Z,3840.00
2018-09-12T07:43:07.258Z,3844.00
2018-09-12T07:44:07.412Z,3852.00
2018-09-12T07:45:07.568Z,3864.00
2018-09-12T07:46:07.726Z,3872.00
2018-09-12T07:47:07.880Z,3880.00
2018-09-12T07:48:08.031Z,3888.00
2018-09-12T07:49:08.272Z,3896.00
2018-09-12T07:50:08.339Z,3900.00
2018-09-12T07:51:08.495Z,3916.00
2018-09-12T07:52:08.649Z,3920.00
2018-09-12T07:53:08.803Z,3928.00
2018-09-12T07:54:08.958Z,3940.00
2018-09-12T07:55:09.163Z,3948.00
2018-09-12T07:56:09.332Z,3956.00
2018-09-12T07:57:09.423Z,3960.00
2018-09-12T07:58:09.586Z,3968.00
2018-09-12T07:59:09.740Z,3980.00
2018-09-12T08:00:09.967Z,3988.00
2018-09-12T08:01:10.043Z,3996.00
2018-09-12T08:02:10.201Z,4000.00
2018-09-12T08:03:10.354Z,4012.00
2018-09-12T08:04:10.508Z,4024.00
2018-09-12T08:05:10.733Z,4036.00
2018-09-12T08:06:10.821Z,4044.00
2018-09-12T08:07:10.975Z,4048.00
2018-09-12T08:08:11.128Z,4060.00
2018-09-12T08:09:11.280Z,4072.00
2018-09-12T08:10:11.436Z,4076.00
2018-09-12T08:11:11.591Z,4088.00
2018-09-12T08:12:11.814Z,4092.00
2018-09-12T08:13:11.902Z,4104.00
2018-09-12T08:14:12.062Z,4108.00
2018-09-12T08:15:12.219Z,4124.00
2018-09-12T08:16:12.376Z,4132.00
2018-09-12T08:17:12.531Z,4144.00
2018-09-12T08:18:12.685Z,4152.00
2018-09-12T08:19:12.844Z,4160.00
2018-09-12T08:20:12.998Z,4164.00
2018-09-12T08:21:13.154Z,4176.00
2018-09-12T08:22:13.309Z,4180.00
2018-09-12T08:23:13.462Z,4184.00
2018-09-12T08:24:13.620Z,4192.00
2018-09-12T08:25:13.777Z,4200.00
2018-09-12T08:26:13.997Z,4208.00
2018-09-12T08:27:14.089Z,4212.00
2018-09-12T08:28:14.246Z,4220.00
2018-09-12T08:29:14.403Z,4228.00
2018-09-12T08:30:14.560Z,4228.00
2018-09-12T08:31:14.715Z,4232.00
2018-09-12T08:32:14.870Z,4236.00
2018-09-12T08:33:15.065Z,4236.00
2018-09-12T08:34:15.183Z,4244.00
2018-09-12T08:35:15.339Z,4244.00
2018-09-12T08:36:15.505Z,4248.00
2018-09-12T08:37:15.658Z,4252.00
2018-09-12T08:38:15.812Z,4260.00
2018-09-12T08:39:15.970Z,4260.00
2018-09-12T08:40:16.127Z,4264.00
2018-09-12T08:41:16.287Z,4268.00
2018-09-12T08:42:16.508Z,4276.00
2018-09-12T08:43:16.597Z,4276.00
2018-09-12T08:44:16.756Z,4280.00
2018-09-12T08:45:16.916Z,4288.00
2018-09-12T08:46:17.068Z,4296.00
2018-09-12T08:47:17.231Z,4300.00
2018-09-12T08:48:17.386Z,4304.00
2018-09-12T08:49:17.541Z,4308.00
2018-09-12T08:50:17.698Z,4312.00
2018-09-12T08:51:17.857Z,4316.00
2018-09-12T08:52:18.012Z,4320.00
2018-09-12T08:53:18.170Z,4324.00
2018-09-12T08:54:18.327Z,4332.00
2018-09-12T08:55:18.483Z,4336.00
2018-09-12T08:56:18.641Z,4340.00
2018-09-12T08:57:18.798Z,4348.00
2018-09-12T08:58:18.957Z,4356.00
2018-09-12T08:59:19.117Z,4356.00
2018-09-12T09:00:19.320Z,4364.00
2018-09-12T09:01:19.509Z,4368.00
2018-09-12T09:02:19.587Z,4376.00
2018-09-12T09:03:19.747Z,4380.00
2018-09-12T09:04:19.905Z,4388.00
2018-09-12T09:05:20.062Z,4392.00
2018-09-12T09:06:20.220Z,4388.00
2018-09-12T09:07:20.378Z,4400.00
2018-09-12T09:08:20.535Z,4404.00
2018-09-12T09:09:20.691Z,4408.00
2018-09-12T09:10:20.883Z,4412.00
2018-09-12T09:11:21.007Z,4420.00
2018-09-12T09:12:21.183Z,4424.00
2018-09-12T09:13:21.339Z,4428.00
2018-09-12T09:14:21.499Z,4436.00
2018-09-12T09:15:21.658Z,4444.00
2018-09-12T09:16:21.817Z,4448.00
2018-09-12T09:17:22.033Z,4456.00
2018-09-12T09:18:22.136Z,4456.00
2018-09-12T09:19:22.289Z,4464.00
2018-09-12T09:20:22.444Z,4476.00
2018-09-12T09:21:22.601Z,4476.00
2018-09-12T09:22:22.761Z,4480.00
2018-09-12T09:23:22.919Z,4484.00
2018-09-12T09:24:23.077Z,4488.00
2018-09-12T09:25:23.236Z,4496.00
2018-09-12T09:26:23.395Z,4512.00
2018-09-12T09:27:23.554Z,4500.00
2018-09-12T09:28:23.712Z,4512.00
2018-09-12T09:29:23.943Z,4516.00
2018-09-12T09:30:24.031Z,4520.00
2018-09-12T09:31:24.189Z,4516.00
2018-09-12T09:32:24.346Z,4524.00
2018-09-12T09:33:24.506Z,4532.00
2018-09-12T09:34:24.664Z,4548.00
2018-09-12T09:35:24.898Z,4544.00
2018-09-12T09:36:24.980Z,4552.00
2018-09-12T09:37:25.138Z,4552.00
2018-09-12T09:38:25.297Z,4556.00
2018-09-12T09:39:25.457Z,4564.00
2018-09-12T09:40:25.616Z,4572.00
2018-09-12T09:41:25.773Z,4576.00
2018-09-12T09:42:25.934Z,4588.00
2018-09-12T09:43:26.095Z,4584.00
2018-09-12T09:44:26.253Z,4588.00
2018-09-12T09:45:26.456Z,4592.00
2018-09-12T09:46:26.572Z,4596.00
2018-09-12T09:47:26.731Z,4612.00
2018-09-12T09:48:26.955Z,4616.00
2018-09-12T09:49:27.049Z,4624.00
2018-09-12T09:50:27.208Z,4632.00
2018-09-12T09:51:27.370Z,4632.00
2018-09-12T09:52:27.528Z,4636.00
2018-09-12T09:53:27.687Z,4644.00
2018-09-12T09:54:27.849Z,4644.00
2018-09-12T09:55:28.007Z,4628.00
2018-09-12T09:56:28.165Z,4628.00
2018-09-12T09:57:28.326Z,4620.00
2018-09-12T09:58:28.485Z,4628.00
2018-09-12T09:59:28.644Z,4632.00
2018-09-12T10:00:28.886Z,4620.00
2018-09-12T10:01:28.962Z,4636.00
2018-09-12T10:02:29.125Z,4612.00
2018-09-12T10:03:29.287Z,4592.00
2018-09-12T10:04:29.440Z,4624.00
2018-09-12T10:05:29.601Z,4644.00
2018-09-12T10:06:29.760Z,4628.00
2018-09-12T10:07:29.917Z,4628.00
2018-09-12T10:08:30.123Z,4620.00
2018-09-12T10:09:30.239Z,4656.00
2018-09-12T10:10:30.399Z,4652.00
2018-09-12T10:11:30.560Z,4640.00
2018-09-12T10:12:30.720Z,4636.00
2018-09-12T10:13:30.876Z,4636.00
2018-09-12T10:14:31.040Z,4640.00
2018-09-12T10:15:31.201Z,4648.00
2018-09-12T10:16:31.363Z,4656.00
2018-09-12T10:17:31.526Z,4660.00
2018-09-12T10:18:31.689Z,4660.00
2018-09-12T10:19:31.848Z,4644.00
2018-09-12T10:20:32.009Z,4660.00
2018-09-12T10:21:32.175Z,4660.00
2018-09-12T10:22:32.334Z,4672.00
2018-09-12T10:23:32.491Z,4708.00
2018-09-12T10:24:32.654Z,4692.00
2018-09-12T10:25:32.813Z,4704.00
2018-09-12T10:26:32.974Z,4688.00
2018-09-12T10:27:33.136Z,4700.00
2018-09-12T10:28:33.297Z,4696.00
2018-09-12T10:29:33.459Z,4704.00
2018-09-12T10:30:33.618Z,4708.00
2018-09-12T10:31:33.780Z,4708.00
2018-09-12T10:32:33.938Z,4716.00
2018-09-12T10:33:34.102Z,4712.00
2018-09-12T10:34:34.263Z,4704.00
2018-09-12T10:35:34.425Z,4708.00
2018-09-12T10:36:34.581Z,4720.00
2018-09-12T10:37:34.746Z,4712.00
2018-09-12T10:38:34.905Z,4716.00
2018-09-12T10:39:35.065Z,4708.00
2018-09-12T10:40:35.224Z,4708.00
2018-09-12T10:41:35.388Z,4684.00
2018-09-12T10:42:35.551Z,4712.00
2018-09-12T10:43:35.709Z,4724.00
2018-09-12T10:44:35.872Z,4728.00
2018-09-12T10:45:36.034Z,4736.00
2018-09-12T10:46:36.193Z,4744.00
2018-09-12T10:47:36.355Z,4760.00
2018-09-12T10:48:36.516Z,4744.00
2018-09-12T10:49:36.679Z,4708.00
2018-09-12T10:50:36.842Z,4688.00
2018-09-12T10:51:37.001Z,4752.00
2018-09-12T10:52:37.161Z,4768.00
2018-09-12T10:53:37.320Z,4760.00
2018-09-12T10:54:37.486Z,4728.00
2018-09-12T10:55:37.657Z,4748.00
2018-09-12T10:56:37.801Z,4768.00
2018-09-12T10:57:37.965Z,4752.00
2018-09-12T10:58:38.128Z,4744.00
2018-09-12T10:59:38.289Z,4760.00
2018-09-12T11:00:38.449Z,4760.00
2018-09-12T11:01:38.611Z,4784.00
2018-09-12T11:02:38.774Z,4776.00
2018-09-12T11:03:38.936Z,4728.00
2018-09-12T11:04:39.097Z,4764.00
2018-09-12T11:05:39.258Z,4788.00
2018-09-12T11:06:39.422Z,4760.00
2018-09-12T11:07:39.581Z,4756.00
2018-09-12T11:08:39.745Z,4772.00
2018-09-12T11:09:39.915Z,4784.00
2018-09-12T11:10:40.064Z,4768.00
2018-09-12T11:11:40.224Z,4748.00
2018-09-12T11:12:40.390Z,4776.00
2018-09-12T11:13:40.544Z,4776.00
2018-09-12T11:14:40.708Z,4776.00
2018-09-12T11:15:40.869Z,4816.00
2018-09-12T11:16:41.031Z,4780.00
2018-09-12T11:17:41.192Z,4816.00
2018-09-12T11:18:41.351Z,4820.00
2018-09-12T11:19:41.517Z,4812.00
2018-09-12T11:20:41.676Z,4824.00
2018-09-12T11:21:41.836Z,4816.00
2018-09-12T11:22:41.999Z,4820.00
2018-09-12T11:23:42.165Z,4836.00
2018-09-12T11:24:42.327Z,4864.00
2018-09-12T11:25:42.487Z,4840.00
2018-09-12T11:26:42.648Z,4852.00
2018-09-12T11:27:42.818Z,4684.00
2018-09-12T11:28:42.979Z,4908.00
2018-09-12T11:29:43.139Z,4860.00
2018-09-12T11:30:43.301Z,4852.00
2018-09-12T11:31:43.467Z,4860.00
2018-09-12T11:32:43.629Z,4868.00
2018-09-12T11:33:43.792Z,4884.00
2018-09-12T11:34:43.952Z,4952.00
2018-09-12T11:35:44.113Z,4864.00
2018-09-12T11:36:44.276Z,4860.00
2018-09-12T11:37:44.437Z,4868.00
2018-09-12T11:38:44.597Z,4876.00
2018-09-12T11:39:44.762Z,4884.00
2018-09-12T11:40:44.929Z,4872.00
2018-09-12T11:41:45.088Z,4884.00
2018-09-12T11:42:45.248Z,4896.00
2018-09-12T11:43:45.410Z,4900.00
2018-09-12T11:44:45.576Z,4884.00
2018-09-12T11:45:45.732Z,4900.00
2018-09-12T11:46:45.892Z,4936.00
2018-09-12T11:47:46.055Z,4952.00
2018-09-12T11:48:46.215Z,4920.00
2018-09-12T11:49:46.381Z,4920.00
2018-09-12T11:50:46.542Z,4928.00
2018-09-12T11:51:46.718Z,4936.00
2018-09-12T11:52:46.876Z,4948.00
2018-09-12T11:53:47.040Z,4960.00
2018-09-12T11:54:47.202Z,4976.00
2018-09-12T11:55:47.357Z,5036.00
2018-09-12T11:56:47.521Z,5000.00
2018-09-12T11:57:47.680Z,4948.00
2018-09-12T11:58:47.839Z,4928.00
2018-09-12T11:59:48.002Z,4936.00
2018-09-12T12:00:48.162Z,4984.00
2018-09-12T12:01:48.322Z,4992.00
2018-09-12T12:02:48.485Z,5032.00
2018-09-12T12:03:48.646Z,5032.00
2018-09-12T12:04:48.808Z,4980.00
2018-09-12T12:05:48.969Z,5016.00
2018-09-12T12:06:49.130Z,5012.00
2018-09-12T12:07:49.292Z,5008.00
2018-09-12T12:08:49.454Z,5060.00
2018-09-12T12:09:49.624Z,5080.00
2018-09-12T12:10:49.804Z,5084.00
2018-09-12T12:11:49.951Z,5024.00
2018-09-12T12:12:50.121Z,5012.00
2018-09-12T12:13:50.282Z,5016.00
2018-09-12T12:14:50.440Z,5028.00
2018-09-12T12:15:50.602Z,5044.00
2018-09-12T12:16:50.760Z,5080.00
2018-09-12T12:17:50.921Z,5080.00
2018-09-12T12:18:51.080Z,5064.00
2018-09-12T12:19:51.242Z,5080.00
2018-09-12T12:20:51.406Z,5056.00
2018-09-12T12:21:51.572Z,5108.00
2018-09-12T12:22:51.731Z,5108.00
2018-09-12T12:23:51.891Z,5100.00
2018-09-12T12:24:52.055Z,5084.00
2018-09-12T12:25:52.213Z,5080.00
2018-09-12T12:26:52.375Z,5088.00
2018-09-12T12:27:52.537Z,5124.00
2018-09-12T12:28:52.698Z,5136.00
2018-09-12T12:29:52.862Z,5112.00
2018-09-12T12:30:53.021Z,5152.00
2018-09-12T12:31:53.181Z,5120.00
2018-09-12T12:32:53.343Z,5096.00
2018-09-12T12:33:53.504Z,5048.00